sensor_id;sensor_type;location;lat;lon;timestamp;P1;durP1;ratioP1;P2;durP2;ratioP2
50880;SDS011;36858;47.832;-3.800;2022-07-22T00:00:11;3.00;;;1.77;;
50880;SDS011;36858;47.832;-3.800;2022-07-22T00:02:39;4.50;;;1.90;;
50880;SDS011;36858;47.832;-3.800;2022-07-22T00:05:06;3.10;;;1.90;;
50880;SDS011;36858;47.832;-3.800;2022-07-22T00:07:34;3.23;;;1.80;;
50880;SDS011;36858;47.832;-3.800;2022-07-22T00:10:02;3.33;;;2.17;;
50880;SDS011;36858;47.832;-3.800;2022-07-22T00:12:30;3.03;;;1.73;;
50880;SDS011;36858;47.832;-3.800;2022-07-22T00:14:57;2.30;;;2.10;;
50880;SDS011;36858;47.832;-3.800;2022-07-22T00:17:24;5.20;;;1.90;;
50880;SDS011;36858;47.832;-3.800;2022-07-22T00:19:51;2.00;;;1.80;;
50880;SDS011;36858;47.832;-3.800;2022-07-22T00:22:18;2.90;;;1.90;;
50880;SDS011;36858;47.832;-3.800;2022-07-22T00:24:46;10.07;;;2.40;;
50880;SDS011;36858;47.832;-3.800;2022-07-22T00:27:13;2.53;;;2.03;;
50880;SDS011;36858;47.832;-3.800;2022-07-22T00:29:39;2.87;;;2.10;;
50880;SDS011;36858;47.832;-3.800;2022-07-22T00:32:06;4.83;;;1.90;;
50880;SDS011;36858;47.832;-3.800;2022-07-22T00:34:33;3.50;;;2.03;;
50880;SDS011;36858;47.832;-3.800;2022-07-22T00:37:00;4.07;;;2.03;;
50880;SDS011;36858;47.832;-3.800;2022-07-22T00:39:27;4.73;;;2.03;;
50880;SDS011;36858;47.832;-3.800;2022-07-22T00:41:54;4.23;;;2.50;;
50880;SDS011;36858;47.832;-3.800;2022-07-22T00:44:21;2.30;;;2.10;;
50880;SDS011;36858;47.832;-3.800;2022-07-22T00:46:49;4.43;;;2.60;;
50880;SDS011;36858;47.832;-3.800;2022-07-22T00:49:15;4.10;;;2.40;;
50880;SDS011;36858;47.832;-3.800;2022-07-22T00:51:42;7.87;;;2.87;;
50880;SDS011;36858;47.832;-3.800;2022-07-22T00:54:09;7.20;;;2.83;;
50880;SDS011;36858;47.832;-3.800;2022-07-22T00:56:36;2.63;;;2.43;;
50880;SDS011;36858;47.832;-3.800;2022-07-22T00:59:05;4.13;;;2.57;;
50880;SDS011;36858;47.832;-3.800;2022-07-22T01:01:34;4.57;;;2.53;;
50880;SDS011;36858;47.832;-3.800;2022-07-22T01:04:01;3.57;;;2.40;;
50880;SDS011;36858;47.832;-3.800;2022-07-22T01:06:29;3.10;;;2.07;;
50880;SDS011;36858;47.832;-3.800;2022-07-22T01:08:56;6.90;;;2.70;;
50880;SDS011;36858;47.832;-3.800;2022-07-22T01:11:24;4.27;;;2.30;;
50880;SDS011;36858;47.832;-3.800;2022-07-22T01:13:52;4.90;;;2.30;;
50880;SDS011;36858;47.832;-3.800;2022-07-22T01:16:20;3.30;;;2.40;;
50880;SDS011;36858;47.832;-3.800;2022-07-22T01:18:48;4.33;;;2.60;;
50880;SDS011;36858;47.832;-3.800;2022-07-22T01:21:15;3.53;;;2.20;;
50880;SDS011;36858;47.832;-3.800;2022-07-22T01:23:42;5.47;;;2.50;;
50880;SDS011;36858;47.832;-3.800;2022-07-22T01:26:09;5.67;;;2.70;;
50880;SDS011;36858;47.832;-3.800;2022-07-22T01:28:37;4.83;;;2.53;;
50880;SDS011;36858;47.832;-3.800;2022-07-22T01:31:04;2.67;;;2.47;;
50880;SDS011;36858;47.832;-3.800;2022-07-22T01:33:31;4.47;;;2.40;;
50880;SDS011;36858;47.832;-3.800;2022-07-22T01:35:58;4.57;;;2.60;;
50880;SDS011;36858;47.832;-3.800;2022-07-22T01:38:25;6.27;;;2.63;;
50880;SDS011;36858;47.832;-3.800;2022-07-22T01:40:52;3.83;;;2.30;;
50880;SDS011;36858;47.832;-3.800;2022-07-22T01:43:20;5.20;;;2.70;;
50880;SDS011;36858;47.832;-3.800;2022-07-22T01:45:48;2.20;;;2.00;;
50880;SDS011;36858;47.832;-3.800;2022-07-22T01:48:18;2.40;;;2.20;;
50880;SDS011;36858;47.832;-3.800;2022-07-22T01:50:45;5.13;;;2.70;;
50880;SDS011;36858;47.832;-3.800;2022-07-22T01:53:12;3.47;;;2.10;;
50880;SDS011;36858;47.832;-3.800;2022-07-22T01:55:40;4.00;;;2.10;;
50880;SDS011;36858;47.832;-3.800;2022-07-22T01:58:07;2.60;;;2.23;;
50880;SDS011;36858;47.832;-3.800;2022-07-22T02:00:35;2.83;;;2.13;;
50880;SDS011;36858;47.832;-3.800;2022-07-22T02:03:02;2.87;;;2.57;;
50880;SDS011;36858;47.832;-3.800;2022-07-22T02:05:30;2.50;;;2.10;;
50880;SDS011;36858;47.832;-3.800;2022-07-22T02:08:03;4.77;;;2.60;;
50880;SDS011;36858;47.832;-3.800;2022-07-22T02:10:31;5.77;;;2.33;;
50880;SDS011;36858;47.832;-3.800;2022-07-22T02:12:59;4.10;;;2.30;;
50880;SDS011;36858;47.832;-3.800;2022-07-22T02:15:26;3.43;;;2.37;;
50880;SDS011;36858;47.832;-3.800;2022-07-22T02:17:54;2.47;;;1.80;;
50880;SDS011;36858;47.832;-3.800;2022-07-22T02:20:21;3.20;;;1.70;;
50880;SDS011;36858;47.832;-3.800;2022-07-22T02:22:48;1.77;;;1.40;;
50880;SDS011;36858;47.832;-3.800;2022-07-22T02:25:15;2.10;;;1.90;;
50880;SDS011;36858;47.832;-3.800;2022-07-22T02:27:42;4.43;;;2.10;;
50880;SDS011;36858;47.832;-3.800;2022-07-22T02:30:09;6.73;;;2.10;;
50880;SDS011;36858;47.832;-3.800;2022-07-22T02:32:37;3.07;;;1.80;;
50880;SDS011;36858;47.832;-3.800;2022-07-22T02:35:04;3.90;;;1.83;;
50880;SDS011;36858;47.832;-3.800;2022-07-22T02:37:31;2.80;;;2.00;;
50880;SDS011;36858;47.832;-3.800;2022-07-22T02:39:58;4.53;;;1.90;;
50880;SDS011;36858;47.832;-3.800;2022-07-22T02:42:25;4.60;;;2.17;;
50880;SDS011;36858;47.832;-3.800;2022-07-22T02:44:52;3.00;;;1.67;;
50880;SDS011;36858;47.832;-3.800;2022-07-22T02:47:19;1.73;;;1.47;;
50880;SDS011;36858;47.832;-3.800;2022-07-22T02:49:46;5.87;;;2.00;;
50880;SDS011;36858;47.832;-3.800;2022-07-22T02:52:13;2.53;;;1.77;;
50880;SDS011;36858;47.832;-3.800;2022-07-22T02:54:40;3.00;;;1.80;;
50880;SDS011;36858;47.832;-3.800;2022-07-22T02:57:07;3.07;;;1.63;;
50880;SDS011;36858;47.832;-3.800;2022-07-22T02:59:34;2.30;;;1.60;;
50880;SDS011;36858;47.832;-3.800;2022-07-22T03:02:01;2.83;;;1.97;;
50880;SDS011;36858;47.832;-3.800;2022-07-22T03:04:28;3.83;;;2.17;;
50880;SDS011;36858;47.832;-3.800;2022-07-22T03:06:55;2.33;;;2.00;;
50880;SDS011;36858;47.832;-3.800;2022-07-22T03:09:22;2.93;;;1.87;;
50880;SDS011;36858;47.832;-3.800;2022-07-22T03:11:49;3.90;;;2.00;;
50880;SDS011;36858;47.832;-3.800;2022-07-22T03:14:16;2.93;;;1.80;;
50880;SDS011;36858;47.832;-3.800;2022-07-22T03:16:45;2.60;;;1.50;;
50880;SDS011;36858;47.832;-3.800;2022-07-22T03:19:12;6.00;;;2.17;;
50880;SDS011;36858;47.832;-3.800;2022-07-22T03:21:39;2.63;;;1.70;;
50880;SDS011;36858;47.832;-3.800;2022-07-22T03:24:06;1.73;;;1.63;;
50880;SDS011;36858;47.832;-3.800;2022-07-22T03:26:33;1.63;;;1.50;;
50880;SDS011;36858;47.832;-3.800;2022-07-22T03:29:00;3.73;;;1.80;;
50880;SDS011;36858;47.832;-3.800;2022-07-22T03:31:27;2.90;;;1.90;;
50880;SDS011;36858;47.832;-3.800;2022-07-22T03:33:54;2.67;;;1.73;;
50880;SDS011;36858;47.832;-3.800;2022-07-22T03:36:21;3.47;;;1.87;;
50880;SDS011;36858;47.832;-3.800;2022-07-22T03:38:48;7.87;;;1.90;;
50880;SDS011;36858;47.832;-3.800;2022-07-22T03:41:15;2.43;;;1.83;;
50880;SDS011;36858;47.832;-3.800;2022-07-22T03:43:42;2.77;;;1.87;;
50880;SDS011;36858;47.832;-3.800;2022-07-22T03:46:09;2.80;;;1.57;;
50880;SDS011;36858;47.832;-3.800;2022-07-22T03:48:36;2.40;;;1.80;;
50880;SDS011;36858;47.832;-3.800;2022-07-22T03:51:03;1.80;;;1.70;;
50880;SDS011;36858;47.832;-3.800;2022-07-22T03:53:30;2.33;;;1.97;;
50880;SDS011;36858;47.832;-3.800;2022-07-22T03:55:59;4.73;;;2.20;;
50880;SDS011;36858;47.832;-3.800;2022-07-22T03:58:26;3.30;;;1.90;;
50880;SDS011;36858;47.832;-3.800;2022-07-22T04:00:54;2.17;;;1.80;;
50880;SDS011;36858;47.832;-3.800;2022-07-22T04:03:21;3.47;;;1.80;;
50880;SDS011;36858;47.832;-3.800;2022-07-22T04:05:48;3.43;;;2.00;;
50880;SDS011;36858;47.832;-3.800;2022-07-22T04:08:16;3.50;;;1.87;;
50880;SDS011;36858;47.832;-3.800;2022-07-22T04:10:44;2.30;;;1.87;;
50880;SDS011;36858;47.832;-3.800;2022-07-22T04:13:11;2.90;;;1.83;;
50880;SDS011;36858;47.832;-3.800;2022-07-22T04:15:38;3.13;;;1.80;;
50880;SDS011;36858;47.832;-3.800;2022-07-22T04:18:05;2.97;;;1.60;;
50880;SDS011;36858;47.832;-3.800;2022-07-22T04:20:32;2.70;;;1.57;;
50880;SDS011;36858;47.832;-3.800;2022-07-22T04:22:59;2.50;;;1.70;;
50880;SDS011;36858;47.832;-3.800;2022-07-22T04:25:26;3.90;;;1.93;;
50880;SDS011;36858;47.832;-3.800;2022-07-22T04:27:53;3.27;;;1.77;;
50880;SDS011;36858;47.832;-3.800;2022-07-22T04:30:21;3.47;;;1.63;;
50880;SDS011;36858;47.832;-3.800;2022-07-22T04:32:48;2.30;;;1.53;;
50880;SDS011;36858;47.832;-3.800;2022-07-22T04:35:15;1.90;;;1.33;;
50880;SDS011;36858;47.832;-3.800;2022-07-22T04:37:42;1.73;;;1.57;;
50880;SDS011;36858;47.832;-3.800;2022-07-22T04:40:09;3.07;;;1.60;;
50880;SDS011;36858;47.832;-3.800;2022-07-22T04:42:37;3.90;;;1.83;;
50880;SDS011;36858;47.832;-3.800;2022-07-22T04:45:04;3.43;;;1.40;;
50880;SDS011;36858;47.832;-3.800;2022-07-22T04:47:31;3.13;;;1.77;;
50880;SDS011;36858;47.832;-3.800;2022-07-22T04:49:58;3.20;;;1.50;;
50880;SDS011;36858;47.832;-3.800;2022-07-22T04:52:25;3.00;;;1.87;;
50880;SDS011;36858;47.832;-3.800;2022-07-22T04:54:53;4.60;;;1.80;;
50880;SDS011;36858;47.832;-3.800;2022-07-22T04:57:20;2.93;;;1.70;;
50880;SDS011;36858;47.832;-3.800;2022-07-22T04:59:47;4.37;;;1.90;;
50880;SDS011;36858;47.832;-3.800;2022-07-22T05:02:14;3.73;;;2.27;;
50880;SDS011;36858;47.832;-3.800;2022-07-22T05:04:41;3.63;;;1.90;;
50880;SDS011;36858;47.832;-3.800;2022-07-22T05:07:08;4.53;;;2.07;;
50880;SDS011;36858;47.832;-3.800;2022-07-22T05:09:35;3.27;;;1.73;;
50880;SDS011;36858;47.832;-3.800;2022-07-22T05:12:02;4.13;;;2.37;;
50880;SDS011;36858;47.832;-3.800;2022-07-22T05:14:30;5.33;;;1.97;;
50880;SDS011;36858;47.832;-3.800;2022-07-22T05:16:57;4.83;;;2.20;;
50880;SDS011;36858;47.832;-3.800;2022-07-22T05:19:24;6.93;;;3.00;;
50880;SDS011;36858;47.832;-3.800;2022-07-22T05:21:51;5.13;;;2.30;;
50880;SDS011;36858;47.832;-3.800;2022-07-22T05:24:17;4.60;;;2.10;;
50880;SDS011;36858;47.832;-3.800;2022-07-22T05:26:44;7.87;;;2.30;;
50880;SDS011;36858;47.832;-3.800;2022-07-22T05:29:11;5.43;;;2.00;;
50880;SDS011;36858;47.832;-3.800;2022-07-22T05:31:38;3.03;;;1.93;;
50880;SDS011;36858;47.832;-3.800;2022-07-22T05:34:05;7.07;;;2.10;;
50880;SDS011;36858;47.832;-3.800;2022-07-22T05:36:34;7.30;;;2.50;;
50880;SDS011;36858;47.832;-3.800;2022-07-22T05:39:01;8.77;;;2.30;;
50880;SDS011;36858;47.832;-3.800;2022-07-22T05:41:28;4.87;;;1.83;;
50880;SDS011;36858;47.832;-3.800;2022-07-22T05:43:55;2.90;;;1.43;;
50880;SDS011;36858;47.832;-3.800;2022-07-22T05:46:22;5.10;;;2.17;;
50880;SDS011;36858;47.832;-3.800;2022-07-22T05:48:49;5.53;;;1.53;;
50880;SDS011;36858;47.832;-3.800;2022-07-22T05:51:17;6.27;;;1.73;;
50880;SDS011;36858;47.832;-3.800;2022-07-22T05:53:44;2.60;;;1.67;;
50880;SDS011;36858;47.832;-3.800;2022-07-22T05:56:11;2.67;;;1.50;;
50880;SDS011;36858;47.832;-3.800;2022-07-22T05:58:39;3.53;;;1.80;;
50880;SDS011;36858;47.832;-3.800;2022-07-22T06:01:09;2.90;;;1.67;;
50880;SDS011;36858;47.832;-3.800;2022-07-22T06:03:37;4.90;;;2.27;;
50880;SDS011;36858;47.832;-3.800;2022-07-22T06:06:04;2.43;;;2.20;;
50880;SDS011;36858;47.832;-3.800;2022-07-22T06:08:35;3.90;;;1.93;;
50880;SDS011;36858;47.832;-3.800;2022-07-22T06:11:02;5.73;;;1.90;;
50880;SDS011;36858;47.832;-3.800;2022-07-22T06:13:29;2.90;;;1.50;;
50880;SDS011;36858;47.832;-3.800;2022-07-22T06:15:56;2.23;;;1.53;;
50880;SDS011;36858;47.832;-3.800;2022-07-22T06:18:23;4.00;;;1.97;;
50880;SDS011;36858;47.832;-3.800;2022-07-22T06:20:50;5.93;;;2.47;;
50880;SDS011;36858;47.832;-3.800;2022-07-22T06:23:17;4.03;;;1.70;;
50880;SDS011;36858;47.832;-3.800;2022-07-22T06:25:44;4.10;;;1.63;;
50880;SDS011;36858;47.832;-3.800;2022-07-22T06:28:11;3.67;;;1.53;;
50880;SDS011;36858;47.832;-3.800;2022-07-22T06:30:38;2.73;;;1.50;;
50880;SDS011;36858;47.832;-3.800;2022-07-22T06:33:05;4.77;;;2.03;;
50880;SDS011;36858;47.832;-3.800;2022-07-22T06:35:33;1.53;;;1.43;;
50880;SDS011;36858;47.832;-3.800;2022-07-22T06:38:00;3.47;;;1.50;;
50880;SDS011;36858;47.832;-3.800;2022-07-22T06:40:31;3.60;;;1.53;;
50880;SDS011;36858;47.832;-3.800;2022-07-22T06:42:59;1.73;;;1.40;;
50880;SDS011;36858;47.832;-3.800;2022-07-22T06:45:26;3.37;;;1.50;;
50880;SDS011;36858;47.832;-3.800;2022-07-22T06:47:53;3.33;;;1.43;;
50880;SDS011;36858;47.832;-3.800;2022-07-22T06:50:21;3.17;;;1.60;;
50880;SDS011;36858;47.832;-3.800;2022-07-22T06:52:49;2.80;;;1.30;;
50880;SDS011;36858;47.832;-3.800;2022-07-22T06:55:16;9.83;;;1.37;;
50880;SDS011;36858;47.832;-3.800;2022-07-22T06:57:43;6.77;;;1.30;;
50880;SDS011;36858;47.832;-3.800;2022-07-22T07:00:10;2.13;;;1.23;;
50880;SDS011;36858;47.832;-3.800;2022-07-22T07:02:38;3.80;;;1.10;;
50880;SDS011;36858;47.832;-3.800;2022-07-22T07:05:05;2.53;;;1.20;;
50880;SDS011;36858;47.832;-3.800;2022-07-22T07:07:32;2.87;;;1.10;;
50880;SDS011;36858;47.832;-3.800;2022-07-22T07:10:03;4.93;;;1.10;;
50880;SDS011;36858;47.832;-3.800;2022-07-22T07:12:34;3.40;;;1.37;;
50880;SDS011;36858;47.832;-3.800;2022-07-22T07:15:03;3.90;;;0.97;;
50880;SDS011;36858;47.832;-3.800;2022-07-22T07:17:50;8.97;;;1.40;;
50880;SDS011;36858;47.832;-3.800;2022-07-22T07:20:17;3.27;;;1.93;;
50880;SDS011;36858;47.832;-3.800;2022-07-22T07:22:44;5.27;;;1.20;;
50880;SDS011;36858;47.832;-3.800;2022-07-22T07:25:11;1.30;;;1.00;;
50880;SDS011;36858;47.832;-3.800;2022-07-22T07:27:50;5.33;;;1.40;;
50880;SDS011;36858;47.832;-3.800;2022-07-22T07:30:20;3.97;;;1.30;;
50880;SDS011;36858;47.832;-3.800;2022-07-22T07:32:47;4.27;;;1.20;;
50880;SDS011;36858;47.832;-3.800;2022-07-22T07:35:14;10.57;;;7.90;;
50880;SDS011;36858;47.832;-3.800;2022-07-22T07:37:41;6.80;;;6.20;;
50880;SDS011;36858;47.832;-3.800;2022-07-22T07:40:09;21.13;;;7.47;;
50880;SDS011;36858;47.832;-3.800;2022-07-22T07:42:36;11.27;;;4.00;;
50880;SDS011;36858;47.832;-3.800;2022-07-22T07:45:12;19.70;;;12.60;;
50880;SDS011;36858;47.832;-3.800;2022-07-22T07:47:39;17.80;;;11.80;;
50880;SDS011;36858;47.832;-3.800;2022-07-22T07:50:07;17.83;;;14.17;;
50880;SDS011;36858;47.832;-3.800;2022-07-22T07:52:38;55.90;;;19.70;;
50880;SDS011;36858;47.832;-3.800;2022-07-22T07:55:06;73.10;;;22.90;;
50880;SDS011;36858;47.832;-3.800;2022-07-22T07:57:38;77.27;;;17.63;;
50880;SDS011;36858;47.832;-3.800;2022-07-22T08:00:06;49.13;;;12.80;;
50880;SDS011;36858;47.832;-3.800;2022-07-22T08:02:37;36.77;;;10.70;;
50880;SDS011;36858;47.832;-3.800;2022-07-22T08:05:06;23.30;;;4.70;;
50880;SDS011;36858;47.832;-3.800;2022-07-22T08:07:35;62.80;;;12.80;;
50880;SDS011;36858;47.832;-3.800;2022-07-22T08:10:03;33.23;;;6.70;;
50880;SDS011;36858;47.832;-3.800;2022-07-22T08:12:53;15.80;;;4.33;;
50880;SDS011;36858;47.832;-3.800;2022-07-22T08:15:22;9.30;;;2.97;;
50880;SDS011;36858;47.832;-3.800;2022-07-22T08:17:51;6.43;;;1.90;;
50880;SDS011;36858;47.832;-3.800;2022-07-22T08:20:19;5.30;;;1.60;;
50880;SDS011;36858;47.832;-3.800;2022-07-22T08:22:48;45.33;;;11.80;;
50880;SDS011;36858;47.832;-3.800;2022-07-22T08:25:15;92.13;;;20.33;;
50880;SDS011;36858;47.832;-3.800;2022-07-22T08:27:43;53.00;;;10.07;;
50880;SDS011;36858;47.832;-3.800;2022-07-22T08:30:10;43.83;;;10.33;;
50880;SDS011;36858;47.832;-3.800;2022-07-22T08:32:37;29.67;;;8.07;;
50880;SDS011;36858;47.832;-3.800;2022-07-22T08:35:05;32.77;;;7.97;;
50880;SDS011;36858;47.832;-3.800;2022-07-22T08:37:32;18.67;;;4.00;;
50880;SDS011;36858;47.832;-3.800;2022-07-22T08:39:59;4.10;;;1.90;;
50880;SDS011;36858;47.832;-3.800;2022-07-22T08:42:27;6.53;;;1.80;;
50880;SDS011;36858;47.832;-3.800;2022-07-22T08:44:54;5.77;;;1.80;;
50880;SDS011;36858;47.832;-3.800;2022-07-22T08:47:30;27.60;;;4.77;;
50880;SDS011;36858;47.832;-3.800;2022-07-22T08:50:09;29.03;;;5.93;;
50880;SDS011;36858;47.832;-3.800;2022-07-22T08:52:36;13.07;;;2.90;;
50880;SDS011;36858;47.832;-3.800;2022-07-22T08:55:05;3.67;;;1.60;;
50880;SDS011;36858;47.832;-3.800;2022-07-22T08:57:32;2.27;;;1.20;;
50880;SDS011;36858;47.832;-3.800;2022-07-22T09:00:00;7.13;;;1.70;;
50880;SDS011;36858;47.832;-3.800;2022-07-22T09:02:32;2.50;;;1.13;;
50880;SDS011;36858;47.832;-3.800;2022-07-22T09:05:04;27.33;;;6.77;;
50880;SDS011;36858;47.832;-3.800;2022-07-22T09:07:56;43.57;;;9.90;;
50880;SDS011;36858;47.832;-3.800;2022-07-22T09:10:30;15.47;;;3.83;;
50880;SDS011;36858;47.832;-3.800;2022-07-22T09:12:59;6.70;;;3.40;;
50880;SDS011;36858;47.832;-3.800;2022-07-22T09:15:34;15.10;;;11.00;;
50880;SDS011;36858;47.832;-3.800;2022-07-22T09:18:03;16.30;;;14.80;;
50880;SDS011;36858;47.832;-3.800;2022-07-22T09:20:33;13.10;;;11.13;;
50880;SDS011;36858;47.832;-3.800;2022-07-22T09:23:01;15.77;;;11.33;;
50880;SDS011;36858;47.832;-3.800;2022-07-22T09:30:34;10.57;;;9.53;;
50880;SDS011;36858;47.832;-3.800;2022-07-22T09:33:04;18.40;;;5.60;;
50880;SDS011;36858;47.832;-3.800;2022-07-22T09:35:33;18.73;;;5.10;;
50880;SDS011;36858;47.832;-3.800;2022-07-22T09:38:01;70.13;;;14.30;;
50880;SDS011;36858;47.832;-3.800;2022-07-22T09:40:30;69.10;;;14.37;;
50880;SDS011;36858;47.832;-3.800;2022-07-22T09:43:05;52.20;;;12.97;;
50880;SDS011;36858;47.832;-3.800;2022-07-22T09:45:46;88.47;;;17.13;;
50880;SDS011;36858;47.832;-3.800;2022-07-22T09:48:17;36.37;;;7.93;;
50880;SDS011;36858;47.832;-3.800;2022-07-22T09:50:46;18.53;;;3.90;;
50880;SDS011;36858;47.832;-3.800;2022-07-22T09:53:15;9.80;;;2.30;;
50880;SDS011;36858;47.832;-3.800;2022-07-22T09:55:43;3.80;;;1.67;;
50880;SDS011;36858;47.832;-3.800;2022-07-22T09:58:11;6.43;;;2.10;;
50880;SDS011;36858;47.832;-3.800;2022-07-22T10:00:39;10.03;;;2.77;;
50880;SDS011;36858;47.832;-3.800;2022-07-22T10:03:08;3.20;;;1.80;;
50880;SDS011;36858;47.832;-3.800;2022-07-22T10:05:39;4.47;;;2.00;;
50880;SDS011;36858;47.832;-3.800;2022-07-22T10:08:07;4.73;;;1.83;;
50880;SDS011;36858;47.832;-3.800;2022-07-22T10:10:37;42.33;;;8.93;;
50880;SDS011;36858;47.832;-3.800;2022-07-22T10:13:05;139.10;;;30.17;;
50880;SDS011;36858;47.832;-3.800;2022-07-22T10:15:33;179.20;;;38.10;;
50880;SDS011;36858;47.832;-3.800;2022-07-22T10:18:06;141.00;;;28.90;;
50880;SDS011;36858;47.832;-3.800;2022-07-22T10:20:34;108.07;;;20.40;;
50880;SDS011;36858;47.832;-3.800;2022-07-22T10:23:04;142.63;;;27.23;;
50880;SDS011;36858;47.832;-3.800;2022-07-22T10:28:34;39.00;;;10.50;;
50880;SDS011;36858;47.832;-3.800;2022-07-22T10:31:18;64.90;;;13.20;;
50880;SDS011;36858;47.832;-3.800;2022-07-22T10:33:51;37.97;;;8.47;;
50880;SDS011;36858;47.832;-3.800;2022-07-22T10:36:38;67.73;;;10.47;;
50880;SDS011;36858;47.832;-3.800;2022-07-22T10:39:10;28.80;;;5.10;;
50880;SDS011;36858;47.832;-3.800;2022-07-22T10:41:40;60.60;;;10.27;;
50880;SDS011;36858;47.832;-3.800;2022-07-22T10:44:15;33.40;;;7.60;;
50880;SDS011;36858;47.832;-3.800;2022-07-22T10:53:05;3.33;;;1.70;;
50880;SDS011;36858;47.832;-3.800;2022-07-22T10:55:58;2.33;;;1.33;;
50880;SDS011;36858;47.832;-3.800;2022-07-22T11:01:01;2.70;;;1.73;;
50880;SDS011;36858;47.832;-3.800;2022-07-22T11:03:35;3.23;;;1.80;;
50880;SDS011;36858;47.832;-3.800;2022-07-22T11:08:42;2.10;;;1.57;;
50880;SDS011;36858;47.832;-3.800;2022-07-22T11:11:10;5.43;;;1.40;;
50880;SDS011;36858;47.832;-3.800;2022-07-22T11:13:39;4.27;;;1.60;;
50880;SDS011;36858;47.832;-3.800;2022-07-22T11:16:41;2.73;;;1.33;;
50880;SDS011;36858;47.832;-3.800;2022-07-22T11:19:01;2.37;;;1.43;;
50880;SDS011;36858;47.832;-3.800;2022-07-22T11:21:30;4.03;;;1.50;;
50880;SDS011;36858;47.832;-3.800;2022-07-22T11:24:02;3.10;;;1.43;;
50880;SDS011;36858;47.832;-3.800;2022-07-22T11:29:00;2.13;;;1.53;;
50880;SDS011;36858;47.832;-3.800;2022-07-22T11:31:27;4.37;;;1.57;;
50880;SDS011;36858;47.832;-3.800;2022-07-22T11:34:04;1.93;;;1.70;;
50880;SDS011;36858;47.832;-3.800;2022-07-22T11:36:33;4.33;;;1.63;;
50880;SDS011;36858;47.832;-3.800;2022-07-22T11:39:02;3.33;;;1.60;;
50880;SDS011;36858;47.832;-3.800;2022-07-22T11:41:30;3.20;;;1.40;;
50880;SDS011;36858;47.832;-3.800;2022-07-22T11:43:58;3.63;;;1.73;;
50880;SDS011;36858;47.832;-3.800;2022-07-22T11:46:26;7.17;;;2.30;;
50880;SDS011;36858;47.832;-3.800;2022-07-22T11:48:54;10.23;;;2.00;;
50880;SDS011;36858;47.832;-3.800;2022-07-22T11:51:28;3.83;;;1.83;;
50880;SDS011;36858;47.832;-3.800;2022-07-22T11:53:57;11.73;;;1.93;;
50880;SDS011;36858;47.832;-3.800;2022-07-22T11:56:25;21.30;;;5.03;;
50880;SDS011;36858;47.832;-3.800;2022-07-22T11:58:53;12.57;;;2.80;;
50880;SDS011;36858;47.832;-3.800;2022-07-22T12:01:22;11.27;;;3.40;;
50880;SDS011;36858;47.832;-3.800;2022-07-22T12:03:52;38.37;;;7.93;;
50880;SDS011;36858;47.832;-3.800;2022-07-22T12:06:26;35.47;;;8.77;;
50880;SDS011;36858;47.832;-3.800;2022-07-22T12:08:54;12.50;;;3.87;;
50880;SDS011;36858;47.832;-3.800;2022-07-22T12:11:23;15.23;;;4.00;;
50880;SDS011;36858;47.832;-3.800;2022-07-22T12:13:53;10.10;;;3.73;;
50880;SDS011;36858;47.832;-3.800;2022-07-22T12:16:24;7.90;;;2.10;;
50880;SDS011;36858;47.832;-3.800;2022-07-22T12:18:55;2.97;;;1.50;;
50880;SDS011;36858;47.832;-3.800;2022-07-22T12:21:22;44.13;;;7.47;;
50880;SDS011;36858;47.832;-3.800;2022-07-22T12:23:52;35.63;;;6.27;;
50880;SDS011;36858;47.832;-3.800;2022-07-22T12:29:17;23.93;;;6.10;;
50880;SDS011;36858;47.832;-3.800;2022-07-22T12:31:49;10.43;;;2.60;;
50880;SDS011;36858;47.832;-3.800;2022-07-22T12:34:28;29.87;;;6.43;;
50880;SDS011;36858;47.832;-3.800;2022-07-22T12:37:01;11.53;;;3.13;;
50880;SDS011;36858;47.832;-3.800;2022-07-22T12:39:38;8.87;;;1.77;;
50880;SDS011;36858;47.832;-3.800;2022-07-22T12:42:15;85.93;;;77.60;;
50880;SDS011;36858;47.832;-3.800;2022-07-22T12:44:53;43.10;;;38.77;;
50880;SDS011;36858;47.832;-3.800;2022-07-22T12:47:42;22.27;;;20.00;;
50880;SDS011;36858;47.832;-3.800;2022-07-22T12:55:53;52.97;;;12.53;;
50880;SDS011;36858;47.832;-3.800;2022-07-22T12:58:25;43.10;;;7.93;;
50880;SDS011;36858;47.832;-3.800;2022-07-22T13:00:54;85.87;;;15.57;;
50880;SDS011;36858;47.832;-3.800;2022-07-22T13:03:23;90.67;;;15.07;;
50880;SDS011;36858;47.832;-3.800;2022-07-22T13:05:57;45.67;;;11.90;;
50880;SDS011;36858;47.832;-3.800;2022-07-22T13:08:24;42.20;;;10.73;;
50880;SDS011;36858;47.832;-3.800;2022-07-22T13:11:05;38.53;;;8.63;;
50880;SDS011;36858;47.832;-3.800;2022-07-22T13:13:32;54.90;;;11.97;;
50880;SDS011;36858;47.832;-3.800;2022-07-22T13:15:59;61.97;;;14.67;;
50880;SDS011;36858;47.832;-3.800;2022-07-22T13:18:26;35.90;;;8.93;;
50880;SDS011;36858;47.832;-3.800;2022-07-22T13:20:53;19.53;;;5.40;;
50880;SDS011;36858;47.832;-3.800;2022-07-22T13:23:19;25.57;;;4.50;;
50880;SDS011;36858;47.832;-3.800;2022-07-22T13:25:47;7.20;;;2.33;;
50880;SDS011;36858;47.832;-3.800;2022-07-22T13:28:20;6.17;;;1.87;;
50880;SDS011;36858;47.832;-3.800;2022-07-22T13:30:47;4.73;;;1.40;;
50880;SDS011;36858;47.832;-3.800;2022-07-22T13:33:14;5.63;;;1.40;;
50880;SDS011;36858;47.832;-3.800;2022-07-22T13:35:43;6.57;;;4.60;;
50880;SDS011;36858;47.832;-3.800;2022-07-22T13:38:10;8.40;;;1.93;;
50880;SDS011;36858;47.832;-3.800;2022-07-22T13:40:42;1.70;;;1.57;;
50880;SDS011;36858;47.832;-3.800;2022-07-22T13:43:19;8.10;;;5.40;;
50880;SDS011;36858;47.832;-3.800;2022-07-22T13:45:47;25.37;;;11.50;;
50880;SDS011;36858;47.832;-3.800;2022-07-22T13:48:14;37.73;;;11.77;;
50880;SDS011;36858;47.832;-3.800;2022-07-22T13:50:46;30.87;;;6.70;;
50880;SDS011;36858;47.832;-3.800;2022-07-22T13:53:13;13.97;;;2.83;;
50880;SDS011;36858;47.832;-3.800;2022-07-22T13:55:40;14.93;;;8.57;;
50880;SDS011;36858;47.832;-3.800;2022-07-22T13:58:08;3.17;;;2.40;;
50880;SDS011;36858;47.832;-3.800;2022-07-22T14:00:34;9.97;;;7.67;;
50880;SDS011;36858;47.832;-3.800;2022-07-22T14:03:01;66.10;;;17.40;;
50880;SDS011;36858;47.832;-3.800;2022-07-22T14:05:29;81.67;;;16.60;;
50880;SDS011;36858;47.832;-3.800;2022-07-22T14:07:56;51.73;;;7.07;;
50880;SDS011;36858;47.832;-3.800;2022-07-22T14:10:23;14.63;;;4.93;;
50880;SDS011;36858;47.832;-3.800;2022-07-22T14:12:50;20.73;;;14.93;;
50880;SDS011;36858;47.832;-3.800;2022-07-22T14:15:17;19.83;;;4.17;;
50880;SDS011;36858;47.832;-3.800;2022-07-22T14:17:44;53.80;;;9.63;;
50880;SDS011;36858;47.832;-3.800;2022-07-22T14:20:12;36.87;;;7.53;;
50880;SDS011;36858;47.832;-3.800;2022-07-22T14:22:39;14.83;;;8.73;;
50880;SDS011;36858;47.832;-3.800;2022-07-22T14:25:06;13.43;;;10.77;;
50880;SDS011;36858;47.832;-3.800;2022-07-22T14:27:33;15.63;;;14.13;;
50880;SDS011;36858;47.832;-3.800;2022-07-22T14:30:00;41.10;;;9.30;;
50880;SDS011;36858;47.832;-3.800;2022-07-22T14:32:27;54.17;;;12.20;;
50880;SDS011;36858;47.832;-3.800;2022-07-22T14:34:54;81.37;;;13.40;;
50880;SDS011;36858;47.832;-3.800;2022-07-22T14:37:21;46.60;;;8.80;;
50880;SDS011;36858;47.832;-3.800;2022-07-22T14:39:52;17.40;;;3.97;;
50880;SDS011;36858;47.832;-3.800;2022-07-22T14:42:19;4.57;;;1.43;;
50880;SDS011;36858;47.832;-3.800;2022-07-22T14:44:46;2.80;;;0.90;;
50880;SDS011;36858;47.832;-3.800;2022-07-22T14:47:13;3.03;;;0.90;;
50880;SDS011;36858;47.832;-3.800;2022-07-22T14:49:40;2.63;;;1.10;;
50880;SDS011;36858;47.832;-3.800;2022-07-22T14:52:07;1.93;;;0.83;;
50880;SDS011;36858;47.832;-3.800;2022-07-22T14:54:34;7.23;;;1.90;;
50880;SDS011;36858;47.832;-3.800;2022-07-22T14:57:01;17.37;;;4.43;;
50880;SDS011;36858;47.832;-3.800;2022-07-22T14:59:29;45.37;;;12.97;;
50880;SDS011;36858;47.832;-3.800;2022-07-22T15:01:56;16.40;;;5.33;;
50880;SDS011;36858;47.832;-3.800;2022-07-22T15:04:23;18.13;;;5.90;;
50880;SDS011;36858;47.832;-3.800;2022-07-22T15:06:50;12.50;;;3.37;;